createdAt,value
2019-03-20T00:02:13.188Z,2.30
2019-03-20T00:04:49.641Z,2.30
2019-03-20T00:07:15.856Z,2.30
2019-03-20T00:09:46.213Z,2.30
2019-03-20T00:12:16.564Z,2.30
2019-03-20T00:14:47.284Z,2.30
2019-03-20T00:17:18.038Z,2.30
2019-03-20T00:19:48.802Z,2.30
2019-03-20T00:22:19.154Z,2.30
2019-03-20T00:24:49.876Z,2.30
2019-03-20T00:27:20.241Z,2.30
2019-03-20T00:29:50.905Z,2.20
2019-03-20T00:32:21.740Z,2.20
2019-03-20T00:35:00.500Z,2.10
2019-03-20T00:37:24.656Z,2.00
2019-03-20T00:39:55.016Z,1.90
2019-03-20T00:42:25.337Z,2.00
2019-03-20T00:44:56.062Z,2.00
2019-03-20T00:47:26.668Z,1.90
2019-03-20T00:49:58.095Z,1.90
2019-03-20T00:52:29.147Z,1.90
2019-03-20T00:54:59.785Z,1.90
2019-03-20T00:57:30.476Z,1.90
2019-03-20T01:00:01.196Z,2.00
2019-03-20T01:02:31.541Z,2.00
2019-03-20T01:05:12.227Z,2.00
2019-03-20T01:07:34.403Z,2.00
2019-03-20T01:10:11.377Z,2.10
2019-03-20T01:12:41.723Z,2.00
2019-03-20T01:15:12.159Z,2.00
2019-03-20T01:17:43.181Z,1.90
2019-03-20T01:20:22.877Z,1.90
2019-03-20T01:22:53.621Z,1.80
2019-03-20T01:25:24.012Z,1.70
2019-03-20T01:27:54.337Z,1.70
2019-03-20T01:30:36.665Z,1.70
2019-03-20T01:33:11.038Z,1.60
2019-03-20T01:35:42.058Z,1.60
2019-03-20T01:38:12.691Z,1.60
2019-03-20T01:40:43.097Z,1.60
2019-03-20T01:43:13.816Z,1.50
2019-03-20T01:45:44.433Z,1.50
2019-03-20T01:48:14.799Z,1.50
2019-03-20T01:50:45.130Z,1.50
2019-03-20T01:53:15.896Z,1.50
2019-03-20T01:55:46.531Z,1.50
2019-03-20T01:58:17.287Z,1.40
2019-03-20T02:00:48.010Z,1.40
2019-03-20T02:03:18.498Z,1.40
2019-03-20T02:05:49.165Z,1.40
2019-03-20T02:08:19.514Z,1.30
2019-03-20T02:10:49.878Z,1.30
2019-03-20T02:13:20.500Z,1.30
2019-03-20T02:15:51.394Z,1.20
2019-03-20T02:18:22.463Z,1.20
2019-03-20T02:20:53.480Z,1.20
2019-03-20T02:23:24.110Z,1.10
2019-03-20T02:25:55.163Z,1.10
2019-03-20T02:28:25.796Z,1.10
2019-03-20T02:30:56.146Z,1.20
2019-03-20T02:33:26.479Z,1.20
2019-03-20T02:35:56.858Z,1.20
2019-03-20T02:38:27.233Z,1.20
2019-03-20T02:40:57.596Z,1.10
2019-03-20T02:43:27.926Z,1.00
2019-03-20T02:45:58.257Z,1.00
2019-03-20T02:48:29.331Z,0.90
2019-03-20T02:50:59.648Z,0.90
2019-03-20T02:53:30.391Z,0.90
2019-03-20T02:56:01.027Z,0.90
2019-03-20T02:58:31.662Z,0.90
2019-03-20T03:01:02.369Z,0.90
2019-03-20T03:03:33.428Z,0.90
2019-03-20T03:06:07.355Z,0.90
2019-03-20T03:08:35.845Z,0.90
2019-03-20T03:11:07.120Z,0.90
2019-03-20T03:13:37.493Z,0.80
2019-03-20T03:16:07.821Z,0.80
2019-03-20T03:18:38.448Z,0.80
2019-03-20T03:21:08.922Z,0.80
2019-03-20T03:23:40.066Z,0.80
2019-03-20T03:26:10.683Z,0.80
2019-03-20T03:28:41.409Z,0.80
2019-03-20T03:31:12.212Z,0.80
2019-03-20T03:33:42.887Z,0.80
2019-03-20T03:36:21.349Z,0.80
2019-03-20T03:38:46.203Z,0.80
2019-03-20T03:41:16.672Z,0.80
2019-03-20T03:43:47.040Z,0.70
2019-03-20T03:46:18.126Z,0.70
2019-03-20T03:48:48.837Z,0.70
2019-03-20T03:51:19.557Z,0.70
2019-03-20T03:53:50.192Z,0.70
2019-03-20T03:56:21.443Z,0.70
2019-03-20T03:58:52.096Z,0.70
2019-03-20T04:01:22.702Z,0.70
2019-03-20T04:03:53.664Z,0.70
2019-03-20T04:06:34.809Z,0.70
2019-03-20T04:08:56.861Z,0.60
2019-03-20T04:11:27.192Z,0.60
2019-03-20T04:13:58.302Z,0.50
2019-03-20T04:16:29.015Z,0.50
2019-03-20T04:18:59.369Z,0.60
2019-03-20T04:21:29.720Z,0.50
2019-03-20T04:24:00.343Z,0.50
2019-03-20T04:26:30.678Z,0.50
2019-03-20T04:29:01.043Z,0.60
2019-03-20T04:31:32.101Z,0.60
2019-03-20T04:34:02.868Z,0.50
2019-03-20T04:36:33.265Z,0.50
2019-03-20T04:39:05.159Z,0.50
2019-03-20T04:41:35.938Z,0.50
2019-03-20T04:44:06.274Z,0.50
2019-03-20T04:46:36.978Z,0.50
2019-03-20T04:49:07.338Z,0.50
2019-03-20T04:51:38.060Z,0.50
2019-03-20T04:54:08.671Z,0.40
2019-03-20T04:56:39.031Z,0.40
2019-03-20T04:59:09.377Z,0.40
2019-03-20T05:01:39.983Z,0.40
2019-03-20T05:04:11.048Z,0.40
2019-03-20T05:06:41.745Z,0.40
2019-03-20T05:09:12.301Z,0.40
2019-03-20T05:11:42.656Z,0.40
2019-03-20T05:14:13.027Z,0.40
2019-03-20T05:16:43.730Z,0.40
2019-03-20T05:19:14.401Z,0.40
2019-03-20T05:21:45.042Z,0.40
2019-03-20T05:24:15.373Z,0.40
2019-03-20T05:26:46.125Z,0.40
2019-03-20T05:29:16.497Z,0.40
2019-03-20T05:31:47.158Z,0.50
2019-03-20T05:34:17.813Z,0.50
2019-03-20T05:36:48.951Z,0.50
2019-03-20T05:39:20.241Z,0.60
2019-03-20T05:41:50.572Z,0.60
2019-03-20T05:44:21.332Z,0.70
2019-03-20T05:46:51.654Z,0.80
2019-03-20T05:49:22.336Z,0.80
2019-03-20T05:52:04.970Z,0.80
2019-03-20T05:54:35.348Z,0.90
2019-03-20T05:57:06.115Z,0.90
2019-03-20T05:59:36.828Z,0.90
2019-03-20T06:02:07.611Z,1.00
2019-03-20T06:04:38.296Z,1.10
2019-03-20T06:07:08.955Z,1.10
2019-03-20T06:09:40.021Z,1.20
2019-03-20T06:12:11.031Z,1.20
2019-03-20T06:14:41.384Z,1.30
2019-03-20T06:17:12.107Z,1.40
2019-03-20T06:19:42.569Z,1.50
2019-03-20T06:22:12.934Z,1.50
2019-03-20T06:24:43.685Z,1.60
2019-03-20T06:27:14.327Z,1.60
2019-03-20T06:29:44.953Z,1.60
2019-03-20T06:32:15.548Z,1.70
2019-03-20T06:34:45.906Z,1.70
2019-03-20T06:37:16.342Z,1.80
2019-03-20T06:39:47.088Z,1.90
2019-03-20T06:42:17.434Z,2.00
2019-03-20T06:44:47.957Z,2.10
2019-03-20T06:47:18.599Z,2.10
2019-03-20T06:49:48.944Z,2.20
2019-03-20T06:52:19.292Z,2.30
2019-03-20T06:54:49.682Z,2.30
2019-03-20T06:57:20.006Z,2.40
2019-03-20T07:00:31.840Z,2.50
2019-03-20T07:03:09.879Z,2.60
2019-03-20T07:06:05.828Z,2.70
2019-03-20T07:08:49.911Z,2.80
2019-03-20T07:11:19.922Z,2.90
2019-03-20T07:13:50.746Z,2.90
2019-03-20T07:16:21.475Z,3.00
2019-03-20T07:18:52.080Z,3.10
2019-03-20T07:21:22.433Z,3.20
2019-03-20T07:23:52.812Z,3.30
2019-03-20T07:26:23.512Z,3.40
2019-03-20T07:28:54.225Z,3.50
2019-03-20T07:31:24.839Z,3.60
2019-03-20T07:33:55.495Z,3.70
2019-03-20T07:36:25.829Z,3.80
2019-03-20T07:38:56.967Z,3.90
2019-03-20T07:41:27.681Z,4.00
2019-03-20T07:43:58.045Z,4.10
2019-03-20T07:46:28.777Z,4.20
2019-03-20T07:48:59.127Z,4.40
2019-03-20T07:51:29.463Z,4.50
2019-03-20T07:54:00.320Z,4.60
2019-03-20T07:56:32.666Z,4.70
2019-03-20T07:59:03.031Z,4.90
2019-03-20T08:01:33.828Z,5.00
2019-03-20T08:04:04.246Z,5.10
2019-03-20T08:06:35.006Z,5.30
2019-03-20T08:09:07.717Z,5.50
2019-03-20T08:11:38.355Z,5.60
2019-03-20T08:14:09.490Z,5.70
2019-03-20T08:16:40.296Z,5.80
2019-03-20T08:19:10.643Z,6.00
2019-03-20T08:21:41.407Z,6.10
2019-03-20T08:24:12.043Z,6.20
2019-03-20T08:26:43.086Z,6.30
2019-03-20T08:29:13.452Z,6.40
2019-03-20T08:32:03.202Z,6.60
2019-03-20T08:34:33.567Z,6.70
2019-03-20T08:37:05.396Z,6.90
2019-03-20T08:39:36.173Z,7.00
2019-03-20T08:42:06.489Z,7.20
2019-03-20T08:44:36.873Z,7.40
2019-03-20T08:47:07.835Z,7.50
2019-03-20T08:49:38.187Z,7.60
2019-03-20T08:52:08.941Z,7.80
2019-03-20T08:54:39.748Z,8.00
2019-03-20T08:57:10.377Z,8.20
2019-03-20T08:59:41.014Z,8.30
2019-03-20T09:02:11.407Z,8.40
2019-03-20T09:04:42.048Z,8.60
2019-03-20T09:07:12.789Z,8.70
2019-03-20T09:09:43.475Z,8.90
2019-03-20T09:12:14.166Z,9.00
2019-03-20T09:14:44.542Z,9.20
2019-03-20T09:17:14.883Z,9.30
2019-03-20T09:19:45.977Z,9.50
2019-03-20T09:22:16.306Z,9.60
2019-03-20T09:24:46.939Z,9.70
2019-03-20T09:27:17.348Z,9.80
2019-03-20T09:29:47.723Z,9.90
2019-03-20T09:32:18.525Z,9.90
2019-03-20T09:34:48.906Z,10.00
2019-03-20T09:37:19.298Z,10.10
2019-03-20T09:39:50.130Z,10.10
2019-03-20T09:42:20.577Z,10.30
2019-03-20T09:44:51.706Z,10.40
2019-03-20T09:47:22.835Z,10.50
2019-03-20T09:49:53.238Z,10.70
2019-03-20T09:52:23.619Z,10.70
2019-03-20T09:54:54.021Z,10.80
2019-03-20T09:57:24.386Z,11.00
2019-03-20T09:59:55.632Z,11.00
2019-03-20T10:02:26.093Z,11.10
2019-03-20T10:04:56.491Z,11.20
2019-03-20T10:07:27.286Z,11.40
2019-03-20T10:09:57.713Z,11.50
2019-03-20T10:12:28.097Z,11.60
2019-03-20T10:14:58.796Z,11.70
2019-03-20T10:17:29.224Z,11.70
2019-03-20T10:20:00.354Z,11.70
2019-03-20T10:22:31.089Z,11.80
2019-03-20T10:25:02.148Z,11.90
2019-03-20T10:27:32.759Z,12.00
2019-03-20T10:30:03.448Z,12.10
2019-03-20T10:32:33.780Z,12.10
2019-03-20T10:35:06.873Z,12.10
2019-03-20T10:37:37.569Z,12.20
2019-03-20T10:40:24.704Z,12.20
2019-03-20T10:42:55.083Z,12.30
2019-03-20T10:45:25.450Z,12.40
2019-03-20T10:47:56.215Z,12.50
2019-03-20T10:50:30.760Z,12.60
2019-03-20T10:53:01.426Z,12.60
2019-03-20T10:55:32.213Z,12.60
2019-03-20T10:58:02.937Z,12.70
2019-03-20T11:00:33.294Z,12.80
2019-03-20T11:03:03.654Z,12.90
2019-03-20T11:05:34.037Z,12.90
2019-03-20T11:08:04.674Z,13.00
2019-03-20T11:10:35.213Z,13.10
2019-03-20T11:13:05.880Z,13.20
2019-03-20T11:15:36.536Z,13.30
2019-03-20T11:18:06.912Z,13.40
2019-03-20T11:20:37.984Z,13.50
2019-03-20T11:23:08.423Z,13.60
2019-03-20T11:25:38.792Z,13.60
2019-03-20T11:28:09.481Z,13.60
2019-03-20T11:30:40.114Z,13.70
2019-03-20T11:33:10.824Z,13.70
2019-03-20T11:35:42.641Z,13.80
2019-03-20T11:38:13.442Z,14.00
2019-03-20T11:40:43.836Z,13.90
2019-03-20T11:43:14.879Z,13.80
2019-03-20T11:45:45.591Z,13.80
2019-03-20T11:48:17.253Z,13.80
2019-03-20T11:50:47.988Z,14.00
2019-03-20T11:53:18.684Z,14.00
2019-03-20T11:55:49.309Z,13.90
2019-03-20T11:58:19.965Z,14.10
2019-03-20T12:00:50.590Z,14.30
2019-03-20T12:03:20.947Z,14.40
2019-03-20T12:05:51.309Z,14.30
2019-03-20T12:08:21.713Z,14.30
2019-03-20T12:10:52.701Z,14.40
2019-03-20T12:13:23.404Z,14.50
2019-03-20T12:15:55.024Z,14.60
2019-03-20T12:18:26.329Z,14.80
2019-03-20T12:20:56.731Z,14.70
2019-03-20T12:23:27.092Z,14.70
2019-03-20T12:25:57.845Z,14.80
2019-03-20T12:28:28.836Z,14.80
2019-03-20T12:30:59.468Z,14.90
2019-03-20T12:33:30.087Z,15.00
2019-03-20T12:36:00.811Z,15.00
2019-03-20T12:38:32.037Z,14.90
2019-03-20T12:41:02.979Z,14.80
2019-03-20T12:43:34.109Z,14.70
2019-03-20T12:46:04.858Z,14.80
2019-03-20T12:48:35.232Z,14.70
2019-03-20T12:51:05.596Z,14.70
2019-03-20T12:53:36.721Z,14.70
2019-03-20T12:56:07.088Z,14.60
2019-03-20T12:58:37.467Z,14.60
2019-03-20T13:01:08.487Z,14.50
2019-03-20T13:03:38.866Z,14.50
2019-03-20T13:06:09.302Z,14.60
2019-03-20T13:08:40.113Z,14.60
2019-03-20T13:11:10.815Z,14.50
2019-03-20T13:13:41.632Z,14.70
2019-03-20T13:16:12.033Z,14.80
2019-03-20T13:18:42.393Z,14.70
2019-03-20T13:21:13.451Z,14.80
2019-03-20T13:23:44.082Z,15.00
2019-03-20T13:26:14.457Z,14.90
2019-03-20T13:28:45.081Z,15.00
2019-03-20T13:31:23.801Z,15.10
2019-03-20T13:33:54.253Z,15.10
2019-03-20T13:36:25.237Z,15.10
2019-03-20T13:38:56.567Z,15.00
2019-03-20T13:41:27.386Z,14.80
2019-03-20T13:43:57.777Z,14.80
2019-03-20T13:46:28.409Z,14.70
2019-03-20T13:48:58.829Z,14.50
2019-03-20T13:51:29.189Z,14.40
2019-03-20T13:53:59.560Z,14.40
2019-03-20T13:56:30.270Z,14.40
2019-03-20T13:59:00.960Z,14.60
2019-03-20T14:01:31.276Z,14.90
2019-03-20T14:04:02.312Z,15.10
2019-03-20T14:06:32.933Z,15.00
2019-03-20T14:09:04.506Z,14.90
2019-03-20T14:11:34.873Z,14.90
2019-03-20T14:14:05.510Z,14.90
2019-03-20T14:16:35.850Z,14.90
2019-03-20T14:19:06.255Z,14.80
2019-03-20T14:21:36.630Z,14.80
2019-03-20T14:24:06.994Z,14.80
2019-03-20T14:26:37.783Z,14.70
2019-03-20T14:29:08.147Z,14.50
2019-03-20T14:31:38.509Z,14.60
2019-03-20T14:34:08.887Z,14.60
2019-03-20T14:36:39.348Z,14.60
2019-03-20T14:39:10.061Z,14.80
2019-03-20T14:41:40.816Z,14.80
2019-03-20T14:44:11.187Z,14.70
2019-03-20T14:46:41.553Z,14.80
2019-03-20T14:49:12.290Z,14.80
2019-03-20T14:51:42.733Z,14.90
2019-03-20T14:54:13.235Z,14.90
2019-03-20T14:56:43.977Z,14.90
2019-03-20T14:59:14.365Z,14.90
2019-03-20T15:01:44.778Z,15.00
2019-03-20T15:04:15.491Z,15.10
2019-03-20T15:06:46.065Z,15.20
2019-03-20T15:09:18.279Z,15.20
2019-03-20T15:11:49.019Z,15.10
2019-03-20T15:14:19.837Z,15.00
2019-03-20T15:16:50.517Z,14.90
2019-03-20T15:19:20.884Z,14.80
2019-03-20T15:21:51.227Z,14.80
2019-03-20T15:24:22.228Z,14.60
2019-03-20T15:26:52.903Z,14.60
2019-03-20T15:29:23.363Z,14.80
2019-03-20T15:31:53.706Z,14.80
2019-03-20T15:34:24.420Z,14.60
2019-03-20T15:36:55.532Z,14.50
2019-03-20T15:39:25.890Z,14.60
2019-03-20T15:41:56.622Z,14.50
2019-03-20T15:44:27.002Z,14.50
2019-03-20T15:46:57.369Z,14.50
2019-03-20T15:49:27.840Z,14.50
2019-03-20T15:51:58.474Z,14.40
2019-03-20T15:54:29.420Z,14.30
2019-03-20T15:56:59.826Z,14.20
2019-03-20T15:59:30.201Z,14.20
2019-03-20T16:02:00.874Z,14.10
2019-03-20T16:04:31.552Z,14.00
2019-03-20T16:07:01.915Z,13.90
2019-03-20T16:09:32.959Z,13.90
2019-03-20T16:12:03.977Z,13.90
2019-03-20T16:14:34.358Z,13.80
2019-03-20T16:17:05.068Z,13.70
2019-03-20T16:19:35.455Z,13.70
2019-03-20T16:22:06.582Z,13.60
2019-03-20T16:24:37.223Z,13.60
2019-03-20T16:27:08.031Z,13.60
2019-03-20T16:29:38.772Z,13.60
2019-03-20T16:32:09.504Z,13.50
2019-03-20T16:34:39.844Z,13.40
2019-03-20T16:37:10.586Z,13.40
2019-03-20T16:39:40.993Z,13.40
2019-03-20T16:42:11.735Z,13.30
2019-03-20T16:44:42.396Z,13.20
2019-03-20T16:47:12.742Z,13.20
2019-03-20T16:49:43.125Z,13.10
2019-03-20T16:52:15.580Z,13.10
2019-03-20T16:54:45.936Z,13.10
2019-03-20T16:57:16.685Z,12.90
2019-03-20T16:59:47.057Z,12.90
2019-03-20T17:02:17.419Z,12.80
2019-03-20T17:04:48.475Z,12.80
2019-03-20T17:07:19.208Z,12.80
2019-03-20T17:09:49.925Z,12.80
2019-03-20T17:12:20.319Z,12.80
2019-03-20T17:14:50.668Z,12.90
2019-03-20T17:17:21.716Z,12.80
2019-03-20T17:19:52.459Z,12.80
2019-03-20T17:22:23.598Z,12.80
2019-03-20T17:24:54.344Z,12.60
2019-03-20T17:27:24.861Z,12.60
2019-03-20T17:29:55.627Z,12.50
2019-03-20T17:32:26.462Z,12.40
2019-03-20T17:34:56.833Z,12.40
2019-03-20T17:37:27.217Z,12.30
2019-03-20T17:39:57.846Z,12.30
2019-03-20T17:42:28.939Z,12.20
2019-03-20T17:44:59.493Z,12.20
2019-03-20T17:47:30.136Z,12.20
2019-03-20T17:50:00.914Z,12.20
2019-03-20T17:52:31.916Z,12.20
2019-03-20T17:55:02.355Z,12.20
2019-03-20T17:57:52.135Z,12.20
2019-03-20T18:00:32.968Z,12.20
2019-03-20T18:03:03.349Z,12.20
2019-03-20T18:05:33.753Z,12.10
2019-03-20T18:08:05.241Z,12.10
2019-03-20T18:10:35.638Z,12.10
2019-03-20T18:13:07.805Z,12.10
2019-03-20T18:15:38.443Z,12.00
2019-03-20T18:18:09.299Z,12.00
2019-03-20T18:20:39.671Z,12.00
2019-03-20T18:23:10.386Z,12.00
2019-03-20T18:25:41.106Z,12.00
2019-03-20T18:28:11.828Z,12.00
2019-03-20T18:30:43.639Z,12.00
2019-03-20T18:33:13.991Z,12.00
2019-03-20T18:35:44.765Z,12.00
2019-03-20T18:38:15.521Z,11.90
2019-03-20T18:40:45.909Z,11.90
2019-03-20T18:43:16.355Z,11.90
2019-03-20T18:45:46.751Z,11.80
2019-03-20T18:48:17.141Z,11.80
2019-03-20T18:50:47.835Z,11.80
2019-03-20T18:53:18.593Z,11.80
2019-03-20T18:55:48.968Z,11.80
2019-03-20T18:58:19.533Z,11.80
2019-03-20T19:00:50.316Z,11.70
2019-03-20T19:03:28.209Z,11.80
2019-03-20T19:06:09.564Z,11.80
2019-03-20T19:08:40.040Z,11.80
2019-03-20T19:11:10.424Z,11.80
2019-03-20T19:13:40.861Z,11.80
2019-03-20T19:16:11.218Z,11.80
2019-03-20T19:18:41.610Z,11.80
2019-03-20T19:21:12.750Z,11.80
2019-03-20T19:23:43.378Z,11.80
2019-03-20T19:26:13.733Z,11.80
2019-03-20T19:28:44.200Z,11.90
2019-03-20T19:31:14.912Z,11.90
2019-03-20T19:33:45.495Z,11.90
2019-03-20T19:36:16.236Z,11.90
2019-03-20T19:38:46.591Z,11.90
2019-03-20T19:41:17.329Z,11.90
2019-03-20T19:43:47.724Z,11.80
2019-03-20T19:46:18.085Z,11.80
2019-03-20T19:48:48.685Z,11.90
2019-03-20T19:51:19.073Z,11.90
2019-03-20T19:53:49.413Z,11.80
2019-03-20T19:56:19.853Z,11.80
2019-03-20T19:58:50.246Z,11.80
2019-03-20T20:01:20.681Z,11.80
2019-03-20T20:03:51.567Z,11.90
2019-03-20T20:06:22.690Z,11.80
2019-03-20T20:08:53.029Z,11.80
2019-03-20T20:11:23.392Z,11.80
2019-03-20T20:13:54.134Z,11.80
2019-03-20T20:16:24.449Z,11.80
2019-03-20T20:18:54.786Z,11.70
2019-03-20T20:21:25.535Z,11.70
2019-03-20T20:23:55.896Z,11.60
2019-03-20T20:26:26.589Z,11.60
2019-03-20T20:28:57.232Z,11.50
2019-03-20T20:31:27.956Z,11.60
2019-03-20T20:33:58.321Z,11.60
2019-03-20T20:36:28.782Z,11.60
2019-03-20T20:38:59.515Z,11.60
2019-03-20T20:41:29.847Z,11.60
2019-03-20T20:44:01.031Z,11.60
2019-03-20T20:46:31.849Z,11.60
2019-03-20T20:49:02.788Z,11.60
2019-03-20T20:51:33.488Z,11.60
2019-03-20T20:54:03.865Z,11.60
2019-03-20T20:56:34.570Z,11.60
2019-03-20T20:59:05.320Z,11.60
2019-03-20T21:01:35.690Z,11.60
2019-03-20T21:04:06.023Z,11.60
2019-03-20T21:06:36.456Z,11.60
2019-03-20T21:09:08.355Z,11.60
2019-03-20T21:11:38.702Z,11.60
2019-03-20T21:14:09.735Z,11.60
2019-03-20T21:16:40.101Z,11.60
2019-03-20T21:19:35.824Z,11.60
2019-03-20T21:22:32.521Z,11.60
2019-03-20T21:25:03.238Z,11.60
2019-03-20T21:27:53.625Z,11.60
2019-03-20T21:30:40.529Z,11.50
2019-03-20T21:33:38.700Z,11.60
2019-03-20T21:37:04.804Z,11.50
2019-03-20T21:39:35.147Z,11.50
2019-03-20T21:42:23.191Z,11.50
2019-03-20T21:45:10.373Z,11.50
2019-03-20T21:47:39.399Z,11.50
2019-03-20T21:50:40.644Z,11.50
2019-03-20T21:53:16.287Z,11.50
2019-03-20T21:56:20.634Z,11.50
2019-03-20T21:59:22.079Z,11.50
2019-03-20T22:02:43.869Z,11.50
2019-03-20T22:05:31.145Z,11.50
2019-03-20T22:08:01.507Z,11.50
2019-03-20T22:11:18.566Z,11.50
2019-03-20T22:13:53.800Z,11.60
2019-03-20T22:17:00.868Z,11.60
2019-03-20T22:19:42.012Z,11.50
2019-03-20T22:22:26.775Z,11.40
2019-03-20T22:25:21.848Z,11.50
2019-03-20T22:28:23.217Z,11.50
2019-03-20T22:30:53.559Z,11.40
2019-03-20T22:34:19.378Z,11.50
2019-03-20T22:36:49.749Z,11.50
2019-03-20T22:40:00.081Z,11.30
2019-03-20T22:42:56.082Z,11.40
2019-03-20T22:46:05.064Z,11.40
2019-03-20T22:49:25.558Z,11.40
2019-03-20T22:52:29.799Z,11.30
2019-03-20T22:55:39.984Z,11.30
2019-03-20T22:58:27.539Z,11.20
2019-03-20T23:01:29.120Z,11.20
2019-03-20T23:04:16.582Z,11.10
2019-03-20T23:06:46.943Z,11.10
2019-03-20T23:09:17.324Z,11.10
2019-03-20T23:11:47.750Z,11.10
2019-03-20T23:14:18.102Z,11.00
2019-03-20T23:16:48.473Z,11.00
2019-03-20T23:19:18.853Z,11.00
2019-03-20T23:21:49.744Z,11.00
2019-03-20T23:24:20.740Z,11.00
2019-03-20T23:26:51.144Z,11.00
2019-03-20T23:29:21.992Z,10.90
2019-03-20T23:31:52.985Z,10.90
2019-03-20T23:34:23.619Z,11.00
2019-03-20T23:36:53.966Z,11.00
2019-03-20T23:39:24.327Z,11.10
2019-03-20T23:41:55.085Z,11.10
2019-03-20T23:44:25.752Z,11.00
2019-03-20T23:46:57.009Z,11.00
2019-03-20T23:49:27.721Z,11.00
2019-03-20T23:51:58.071Z,11.10
2019-03-20T23:54:33.551Z,11.10
2019-03-20T23:57:04.354Z,11.00
2019-03-20T23:59:34.992Z,11.00
